Time;durP1;ratioP1;P1;durP2;ratioP2;P2;SDS_P1;SDS_P2;PMS_P1;PMS_P2;Temp;Humidity;BMP_temperature;BMP_pressure;BME280_temperature;BME280_humidity;BME280_pressure;Samples;Min_cycle;Max_cycle;Signal;HPM_P1;HPM_P2
2022/06/22 00:01:03;;;;;;;3.75;2.70;;;13.30;99.90;;;;;;2701584;39;20466;31
2022/06/22 00:03:37;;;;;;;3.83;2.30;;;13.20;99.90;;;;;;2604109;46;21267;31
2022/06/22 00:06:31;;;;;;;3.35;2.33;;;13.10;99.90;;;;;;2585674;54;20830;31
2022/06/22 00:09:06;;;;;;;6.53;2.50;;;13.10;99.90;;;;;;2604451;46;20033;31
2022/06/22 00:11:46;;;;;;;6.85;3.15;;;13.00;99.90;;;;;;2604201;46;20089;31
2022/06/22 00:14:24;;;;;;;4.03;2.00;;;12.90;99.90;;;;;;2585659;54;21086;31
2022/06/22 00:16:57;;;;;;;6.40;2.47;;;12.90;99.90;;;;;;2585849;54;20864;31
2022/06/22 00:19:34;;;;;;;5.55;2.90;;;12.80;99.90;;;;;;2585855;54;20852;31
2022/06/22 00:22:20;;;;;;;4.53;2.38;;;12.80;99.90;;;;;;2585648;54;20935;31
2022/06/22 00:24:59;;;;;;;2.97;2.10;;;12.70;99.90;;;;;;2585799;54;20033;31
2022/06/22 00:27:38;;;;;;;8.48;2.67;;;12.70;99.90;;;;;;2585750;54;20952;31
2022/06/22 00:30:22;;;;;;;3.80;2.50;;;12.80;99.90;;;;;;2585971;54;22384;31
2022/06/22 00:33:03;;;;;;;5.57;3.22;;;12.70;99.90;;;;;;2585222;54;25090;31
2022/06/22 00:35:54;;;;;;;7.47;3.33;;;12.70;99.90;;;;;;2585613;54;20899;31
2022/06/22 00:38:32;;;;;;;8.90;3.35;;;12.70;99.90;;;;;;2585451;54;20026;31
2022/06/22 00:41:16;;;;;;;7.23;3.30;;;12.70;99.90;;;;;;2585330;54;20892;31
2022/06/22 00:43:52;;;;;;;5.05;2.90;;;12.60;99.90;;;;;;2603900;46;21369;31
2022/06/22 00:46:28;;;;;;;7.60;4.05;;;12.60;99.90;;;;;;2603997;46;20034;31
2022/06/22 00:49:07;;;;;;;;;;;12.60;99.90;;;;;;2585718;54;20886;31
2022/06/22 00:51:42;;;;;;;11.15;4.05;;;12.50;99.90;;;;;;2603716;46;20699;31
2022/06/22 00:54:19;;;;;;;7.10;3.00;;;12.50;99.90;;;;;;2585527;54;20250;31
2022/06/22 00:56:58;;;;;;;7.80;3.78;;;12.50;99.90;;;;;;2584803;54;22189;31
2022/06/22 00:59:38;;;;;;;9.85;3.70;;;12.40;99.90;;;;;;2585773;54;21107;31
2022/06/22 01:02:20;;;;;;;10.40;3.60;;;12.40;99.90;;;;;;2585717;54;22430;31
2022/06/22 01:04:56;;;;;;;8.18;3.05;;;12.40;99.90;;;;;;2585794;54;20049;31
2022/06/22 01:07:35;;;;;;;7.30;3.33;;;12.30;99.90;;;;;;2585779;54;20031;31
2022/06/22 01:10:14;;;;;;;6.70;3.20;;;12.30;99.90;;;;;;2585512;54;20142;31
2022/06/22 01:12:50;;;;;;;6.72;4.32;;;12.30;99.90;;;;;;2584511;54;20938;31
2022/06/22 01:15:30;;;;;;;6.70;3.40;;;12.20;99.90;;;;;;2603712;46;20034;31
2022/06/22 01:21:01;;;;;;;5.13;3.17;;;12.20;99.90;;;;;;2585286;54;20785;31
2022/06/22 01:23:35;;;;;;;7.70;3.60;;;12.20;99.90;;;;;;2585463;54;20076;31
2022/06/22 01:26:17;;;;;;;8.10;3.45;;;12.10;99.90;;;;;;2585273;54;24078;31
2022/06/22 01:28:59;;;;;;;5.65;3.20;;;12.10;99.90;;;;;;2585620;54;20034;31
2022/06/22 01:31:32;;;;;;;8.75;4.20;;;12.00;99.90;;;;;;2585459;54;22519;31
2022/06/22 01:34:14;;;;;;;6.30;3.60;;;12.00;99.90;;;;;;2603772;46;19985;31
2022/06/22 01:36:48;;;;;;;5.60;2.72;;;11.90;99.90;;;;;;2585327;54;20187;31
2022/06/22 01:39:21;;;;;;;4.97;3.03;;;11.90;99.90;;;;;;2584670;54;21895;31
2022/06/22 01:41:59;;;;;;;4.70;3.08;;;11.90;99.90;;;;;;2584433;54;20881;31
2022/06/22 01:44:39;;;;;;;7.85;3.90;;;11.80;99.90;;;;;;2597513;46;21056;31
2022/06/22 01:47:19;;;;;;;7.15;3.85;;;11.80;99.90;;;;;;2585493;54;20863;31
2022/06/22 01:50:01;;;;;;;6.80;3.65;;;11.70;99.90;;;;;;2585204;54;19934;31
2022/06/22 01:52:59;;;;;;;4.22;2.65;;;11.70;99.90;;;;;;2585003;54;20907;31
2022/06/22 01:55:43;;;;;;;5.10;2.80;;;11.70;99.90;;;;;;2584848;54;20046;31
2022/06/22 01:58:39;;;;;;;7.00;3.40;;;11.70;99.90;;;;;;2585390;54;20136;31
2022/06/22 02:01:19;;;;;;;6.28;3.65;;;11.60;99.90;;;;;;2585155;54;20136;31
2022/06/22 02:04:14;;;;;;;5.47;3.30;;;11.60;99.90;;;;;;2585175;54;20764;31
2022/06/22 02:09:50;;;;;;;4.50;4.10;;;11.60;99.90;;;;;;2585205;54;20242;31
2022/06/22 02:12:28;;;;;;;8.30;4.20;;;11.60;99.90;;;;;;2584858;54;21039;31
2022/06/22 02:15:09;;;;;;;4.97;3.20;;;11.50;99.90;;;;;;2585195;54;20026;31
2022/06/22 02:17:42;;;;;;;4.97;3.20;;;11.50;99.90;;;;;;2584985;54;21020;31
2022/06/22 02:20:36;;;;;;;7.05;4.05;;;11.40;99.90;;;;;;2584844;54;20161;31
2022/06/22 02:23:17;;;;;;;4.55;2.45;;;11.40;99.90;;;;;;2585277;54;21255;31
2022/06/22 02:26:07;;;;;;;4.95;2.90;;;11.40;99.90;;;;;;2603636;46;21055;31
2022/06/22 02:28:42;;;;;;;8.00;3.00;;;11.30;99.90;;;;;;2584801;54;20662;31
2022/06/22 02:31:18;;;;;;;5.23;2.60;;;11.20;99.90;;;;;;2583997;54;21318;31
2022/06/22 02:33:55;;;;;;;4.18;2.47;;;11.20;99.90;;;;;;2584017;54;21047;31
2022/06/22 02:36:33;;;;;;;3.35;2.55;;;11.20;99.90;;;;;;2583757;54;20783;31
2022/06/22 02:39:10;;;;;;;4.20;2.60;;;11.20;99.90;;;;;;2583612;54;20901;31
2022/06/22 02:44:35;;;;;;;5.20;2.38;;;11.30;99.90;;;;;;2584638;54;20031;31
2022/06/22 02:47:22;;;;;;;6.95;3.22;;;11.40;99.90;;;;;;2584810;54;20898;31
2022/06/22 02:49:58;;;;;;;5.35;2.80;;;11.40;99.90;;;;;;2585270;54;21197;31
2022/06/22 02:52:41;;;;;;;6.50;2.85;;;11.30;99.90;;;;;;2584949;54;20938;31
2022/06/22 02:55:15;;;;;;;6.30;3.30;;;11.30;99.90;;;;;;2584913;54;20971;31
2022/06/22 02:57:50;;;;;;;4.65;2.97;;;11.30;99.90;;;;;;2602960;47;22461;31
2022/06/22 03:00:24;;;;;;;6.23;3.20;;;11.20;99.90;;;;;;2584790;54;20990;31
2022/06/22 03:03:03;;;;;;;8.50;4.00;;;11.20;99.90;;;;;;2585124;54;20947;31
2022/06/22 03:05:38;;;;;;;5.90;3.47;;;11.20;99.90;;;;;;2585681;54;20963;31
2022/06/22 03:08:18;;;;;;;6.10;3.45;;;11.20;99.90;;;;;;2603764;46;20042;31
2022/06/22 03:10:52;;;;;;;5.97;3.20;;;11.10;99.90;;;;;;2604174;46;22520;31
2022/06/22 03:13:31;;;;;;;4.03;2.83;;;11.00;99.90;;;;;;2585620;54;20027;31
2022/06/22 03:16:07;;;;;;;6.15;3.20;;;11.10;99.90;;;;;;2584595;54;20085;31
2022/06/22 03:18:42;;;;;;;8.98;4.15;;;11.10;99.90;;;;;;2604054;46;21922;31
2022/06/22 03:21:18;;;;;;;6.70;4.00;;;11.20;99.90;;;;;;2584577;54;20117;31
2022/06/22 03:23:55;;;;;;;10.03;4.40;;;11.20;99.90;;;;;;2585699;54;22556;31
2022/06/22 03:26:31;;;;;;;7.00;4.05;;;11.40;99.90;;;;;;2585578;54;20031;31
2022/06/22 03:29:08;;;;;;;11.43;4.90;;;11.50;99.90;;;;;;2585620;54;20026;31
2022/06/22 03:31:44;;;;;;;8.90;4.38;;;11.60;99.90;;;;;;2683813;39;22417;31
2022/06/22 03:34:20;;;;;;;6.07;3.78;;;11.60;99.90;;;;;;2585813;54;20826;31
2022/06/22 03:36:57;;;;;;;10.32;4.72;;;11.70;99.90;;;;;;2585698;54;20935;31
2022/06/22 03:39:36;;;;;;;9.30;4.88;;;11.80;99.90;;;;;;2585626;54;20955;31
2022/06/22 03:42:13;;;;;;;8.05;4.45;;;12.00;99.90;;;;;;2586013;54;20090;31
2022/06/22 03:44:52;;;;;;;7.25;4.90;;;12.20;99.90;;;;;;2585908;54;21211;31
2022/06/22 03:47:27;;;;;;;8.45;4.30;;;12.30;99.90;;;;;;2702135;39;22279;31
2022/06/22 03:50:06;;;;;;;6.75;4.35;;;12.50;99.90;;;;;;2584903;54;20940;31
2022/06/22 03:52:51;;;;;;;7.47;4.28;;;12.70;99.90;;;;;;2584950;54;19948;31
2022/06/22 03:55:32;;;;;;;8.80;4.70;;;12.90;99.90;;;;;;2585752;54;20899;31
2022/06/22 03:58:10;;;;;;;7.93;4.57;;;13.10;99.90;;;;;;2604085;46;20159;31
2022/06/22 04:00:45;;;;;;;7.35;4.40;;;13.30;99.90;;;;;;2604170;46;21873;31
2022/06/22 04:03:20;;;;;;;7.20;4.20;;;13.40;99.90;;;;;;2585888;54;20605;31
2022/06/22 04:05:56;;;;;;;5.95;3.80;;;13.50;99.90;;;;;;2683940;39;22438;31
2022/06/22 04:08:33;;;;;;;5.57;3.63;;;13.70;99.90;;;;;;2585599;54;20981;31
2022/06/22 04:11:11;;;;;;;9.63;4.23;;;13.80;99.90;;;;;;2603922;46;20799;31
2022/06/22 04:13:47;;;;;;;5.15;3.55;;;14.00;99.90;;;;;;2585725;54;21021;31
2022/06/22 04:16:25;;;;;;;9.40;4.20;;;14.20;99.90;;;;;;2585448;54;20027;31
2022/06/22 04:19:02;;;;;;;6.93;3.33;;;14.50;99.90;;;;;;2585664;54;21037;31
2022/06/22 04:21:38;;;;;;;6.97;3.67;;;14.60;99.90;;;;;;2603002;46;20069;31
2022/06/22 04:24:14;;;;;;;4.85;3.47;;;14.70;99.90;;;;;;2585308;54;20902;31
2022/06/22 04:26:57;;;;;;;8.35;4.35;;;14.80;99.90;;;;;;2584740;54;19947;31
2022/06/22 04:29:37;;;;;;;8.30;4.00;;;15.00;99.90;;;;;;2585672;54;20969;31
2022/06/22 04:32:18;;;;;;;6.27;4.77;;;15.10;99.90;;;;;;2585366;54;20991;31
2022/06/22 04:34:50;;;;;;;8.68;4.18;;;15.30;99.90;;;;;;2585493;54;20033;31
2022/06/22 04:37:31;;;;;;;6.13;3.30;;;15.50;99.90;;;;;;2603909;46;20150;31
2022/06/22 04:40:12;;;;;;;7.35;4.45;;;15.70;99.90;;;;;;2584610;54;20158;31
2022/06/22 04:43:00;;;;;;;7.45;3.72;;;16.00;99.90;;;;;;2585218;54;21018;31
2022/06/22 04:45:35;;;;;;;8.13;3.70;;;16.20;99.90;;;;;;2585823;54;20929;31
2022/06/22 04:48:11;;;;;;;;;;;16.40;99.90;;;;;;2585801;54;20064;31
2022/06/22 04:50:45;;;;;;;6.43;2.88;;;16.70;99.90;;;;;;2604003;46;19934;31
2022/06/22 04:53:22;;;;;;;4.28;2.35;;;17.20;99.90;;;;;;2585987;54;22340;31
2022/06/22 04:55:56;;;;;;;6.55;4.05;;;17.50;99.90;;;;;;2604111;46;20027;31
2022/06/22 04:58:38;;;;;;;8.05;4.47;;;17.80;99.90;;;;;;2584535;54;20936;31
2022/06/22 05:01:13;;;;;;;9.82;3.88;;;18.00;99.90;;;;;;2585680;54;19988;31
2022/06/22 05:03:47;;;;;;;7.18;4.18;;;18.20;99.90;;;;;;2585743;54;20029;31
2022/06/22 05:06:23;;;;;;;7.37;4.00;;;18.40;99.90;;;;;;2604126;46;20049;31
2022/06/22 05:08:59;;;;;;;11.00;4.07;;;18.60;99.90;;;;;;2585444;54;20812;31
2022/06/22 05:11:40;;;;;;;7.78;3.80;;;18.80;99.90;;;;;;2585564;54;21013;31
2022/06/22 05:14:23;;;;;;;6.22;3.50;;;19.00;99.90;;;;;;2585372;54;20104;31
2022/06/22 05:17:01;;;;;;;7.30;3.60;;;19.10;99.90;;;;;;2584584;54;20939;31
2022/06/22 05:19:46;;;;;;;8.30;3.78;;;19.30;99.90;;;;;;2585514;54;20946;31
2022/06/22 05:22:24;;;;;;;5.90;3.50;;;19.50;99.90;;;;;;2585426;54;20942;31
2022/06/22 05:25:06;;;;;;;4.80;2.60;;;19.60;99.90;;;;;;2585674;54;20277;31
2022/06/22 05:27:45;;;;;;;4.95;3.25;;;19.90;99.90;;;;;;2584612;54;21064;31
2022/06/22 05:30:23;;;;;;;12.07;3.40;;;20.00;99.90;;;;;;2584486;54;20920;31
2022/06/22 05:32:58;;;;;;;8.15;3.00;;;20.30;99.90;;;;;;2584911;54;21189;31
2022/06/22 05:35:35;;;;;;;4.53;2.67;;;20.40;99.90;;;;;;2603012;46;20089;31
2022/06/22 05:38:13;;;;;;;6.85;2.97;;;20.70;99.90;;;;;;2585242;54;20813;31
2022/06/22 05:40:49;;;;;;;6.43;3.60;;;20.90;99.90;;;;;;2584329;54;20917;31
2022/06/22 05:43:22;;;;;;;6.97;3.30;;;21.10;99.90;;;;;;2701919;39;22692;31
2022/06/22 05:46:06;;;;;;;8.60;3.33;;;21.30;99.90;;;;;;2585555;54;20250;31
2022/06/22 05:48:43;;;;;;;8.45;3.15;;;21.60;99.90;;;;;;2603521;46;20030;31
2022/06/22 05:51:19;;;;;;;3.90;2.90;;;21.70;99.90;;;;;;2585527;54;20169;31
2022/06/22 05:53:57;;;;;;;4.15;2.65;;;21.90;99.90;;;;;;2585167;54;21066;31
2022/06/22 05:56:38;;;;;;;5.03;2.20;;;22.00;99.90;;;;;;2585344;54;20980;31
2022/06/22 05:59:18;;;;;;;5.33;2.53;;;22.30;99.90;;;;;;2585379;54;20031;31
2022/06/22 06:01:59;;;;;;;4.75;1.60;;;22.50;99.90;;;;;;2603907;46;20377;31
2022/06/22 06:04:37;;;;;;;5.73;1.87;;;22.70;99.90;;;;;;2603300;46;20089;31
2022/06/22 06:07:22;;;;;;;5.13;1.97;;;23.00;99.90;;;;;;2585310;54;20173;31
2022/06/22 06:10:03;;;;;;;3.77;1.50;;;23.10;99.90;;;;;;2585524;54;20968;31
2022/06/22 06:12:43;;;;;;;6.65;1.90;;;23.20;99.90;;;;;;2585282;54;20788;31
2022/06/22 06:15:19;;;;;;;4.43;1.80;;;23.50;99.90;;;;;;2585381;54;20026;31
2022/06/22 06:18:00;;;;;;;9.68;2.40;;;23.60;99.90;;;;;;2584354;54;20239;31
2022/06/22 06:20:37;;;;;;;4.47;1.47;;;23.90;99.90;;;;;;2603372;46;20093;31
2022/06/22 06:23:15;;;;;;;5.60;1.30;;;24.10;99.90;;;;;;2585141;54;20297;31
2022/06/22 06:28:42;;;;;;;4.30;1.50;;;24.30;99.90;;;;;;2603569;46;20026;31
2022/06/22 06:31:22;;;;;;;7.13;1.55;;;24.60;99.90;;;;;;2603741;46;20038;31
2022/06/22 06:34:03;;;;;;;3.60;1.90;;;24.70;99.20;;;;;;2584967;54;20904;31
2022/06/22 06:36:49;;;;;;;6.40;1.35;;;24.90;99.00;;;;;;2585285;54;20929;31
2022/06/22 06:39:28;;;;;;;7.22;1.80;;;25.10;97.40;;;;;;2604328;46;20031;31
2022/06/22 06:42:09;;;;;;;5.05;0.95;;;25.30;97.70;;;;;;2754596;31;21751;31
2022/06/22 06:44:49;;;;;;;3.45;1.05;;;25.50;95.40;;;;;;2585924;54;20943;31
2022/06/22 06:47:31;;;;;;;1.75;0.70;;;25.60;94.40;;;;;;2601098;46;20806;31
2022/06/22 06:50:12;;;;;;;4.70;1.40;;;25.70;93.50;;;;;;2584709;54;20875;31
2022/06/22 06:52:49;;;;;;;2.97;1.30;;;25.90;94.30;;;;;;2593401;46;20093;31
2022/06/22 06:55:35;;;;;;;3.90;1.10;;;26.00;92.80;;;;;;2585767;54;20030;31
2022/06/22 06:58:13;;;;;;;;;;;26.00;92.80;;;;;;2586175;54;19934;31
2022/06/22 07:00:51;;;;;;;6.35;1.05;;;26.20;92.00;;;;;;2586818;46;20906;31
2022/06/22 07:03:28;;;;;;;;;;;26.30;90.40;;;;;;2586254;54;20895;31
2022/06/22 07:06:05;;;;;;;;;;;26.50;90.20;;;;;;2586092;54;21165;31
2022/06/22 07:08:42;;;;;;;4.55;1.55;;;26.80;88.80;;;;;;2604035;46;20758;31
2022/06/22 07:11:18;;;;;;;;;;;26.80;89.00;;;;;;2585790;54;20089;31
2022/06/22 07:13:54;;;;;;;3.87;1.00;;;26.70;87.00;;;;;;2585747;54;19985;31
2022/06/22 07:16:32;;;;;;;5.38;1.20;;;26.60;86.90;;;;;;2585525;54;20275;31
2022/06/22 07:19:10;;;;;;;4.27;1.50;;;26.70;88.20;;;;;;2584635;54;20939;31
2022/06/22 07:21:48;;;;;;;;;;;26.60;84.60;;;;;;2585958;54;20046;31
2022/06/22 07:24:27;;;;;;;8.40;0.90;;;26.40;82.10;;;;;;2584581;54;19935;31
2022/06/22 07:27:04;;;;;;;9.57;1.50;;;26.40;84.40;;;;;;2585560;54;20031;31
2022/06/22 07:29:57;;;;;;;8.50;1.70;;;26.50;82.70;;;;;;2585703;54;20988;31
2022/06/22 07:32:36;;;;;;;3.03;1.02;;;26.40;79.90;;;;;;2584826;54;20327;31
2022/06/22 07:35:14;;;;;;;5.50;1.35;;;26.30;80.70;;;;;;2584820;54;20616;31
2022/06/22 07:37:58;;;;;;;7.55;1.50;;;26.30;81.80;;;;;;2584539;54;21424;31
2022/06/22 07:40:37;;;;;;;3.80;1.25;;;26.20;79.70;;;;;;2585368;54;20022;31
2022/06/22 07:43:13;;;;;;;8.85;1.10;;;26.10;80.10;;;;;;2584602;54;20048;31
2022/06/22 07:45:59;;;;;;;;;;;;;;;;;;;;;
2022/06/22 07:48:50;;;;;;;5.07;0.90;;;26.00;80.50;;;;;;2683208;39;21450;31
2022/06/22 07:51:30;;;;;;;5.30;0.80;;;26.00;80.30;;;;;;2585604;54;20980;31
2022/06/22 07:54:21;;;;;;;1.67;0.60;;;26.00;81.40;;;;;;2754164;31;21639;31
2022/06/22 07:57:10;;;;;;;3.40;0.70;;;26.00;79.10;;;;;;2585237;54;20875;31
2022/06/22 07:59:55;;;;;;;3.10;1.05;;;26.10;76.20;;;;;;2585155;54;20967;31
2022/06/22 08:02:33;;;;;;;3.25;1.10;;;26.40;77.40;;;;;;2584907;54;20072;31
2022/06/22 08:05:13;;;;;;;4.67;0.70;;;26.60;76.00;;;;;;2604227;46;20026;31
2022/06/22 08:07:53;;;;;;;3.90;0.90;;;27.00;75.50;;;;;;2604136;46;20034;31
2022/06/22 08:10:35;;;;;;;2.30;0.75;;;27.20;75.80;;;;;;2585462;54;20986;31
2022/06/22 08:13:18;;;;;;;2.15;0.70;;;27.50;75.60;;;;;;2683376;39;21622;31
2022/06/22 08:16:13;;;;;;;2.87;0.60;;;27.80;74.00;;;;;;2585086;54;20621;31
2022/06/22 08:18:54;;;;;;;3.13;0.73;;;28.00;74.20;;;;;;2585202;54;21019;31
2022/06/22 08:21:29;;;;;;;7.50;0.82;;;28.30;74.30;;;;;;2584496;54;20866;31
2022/06/22 08:24:09;;;;;;;3.40;0.60;;;28.40;73.80;;;;;;2584467;54;20734;31
2022/06/22 08:29:52;;;;;;;7.75;1.30;;;28.80;72.60;;;;;;2585560;54;20060;31
2022/06/22 08:32:26;;;;;;;3.55;0.80;;;29.10;72.30;;;;;;2592592;46;20044;31
2022/06/22 08:35:05;;;;;;;4.20;0.60;;;29.20;71.00;;;;;;2683067;39;20507;31
2022/06/22 08:37:46;;;;;;;7.45;1.00;;;29.30;71.10;;;;;;2603825;46;20881;31
2022/06/22 08:40:25;;;;;;;2.40;0.60;;;29.60;70.30;;;;;;2584139;54;20026;31
2022/06/22 08:43:17;;;;;;;3.05;0.85;;;29.60;70.60;;;;;;2585494;54;20753;31
2022/06/22 08:49:18;;;;;;;4.05;0.90;;;29.80;70.60;;;;;;2585274;54;20761;31
2022/06/22 08:52:43;;;;;;;4.25;0.88;;;30.00;70.70;;;;;;2585504;54;20085;31
2022/06/22 08:55:56;;;;;;;2.85;0.90;;;30.10;69.80;;;;;;2584942;54;20955;31
2022/06/22 08:59:02;;;;;;;3.35;0.82;;;30.00;68.30;;;;;;2584975;54;20030;31
2022/06/22 09:01:46;;;;;;;3.90;0.70;;;30.00;68.90;;;;;;2584814;54;20042;31
2022/06/22 09:07:38;;;;;;;2.30;0.90;;;29.60;68.70;;;;;;2584445;54;20795;31
2022/06/22 09:10:45;;;;;;;2.67;1.05;;;29.70;70.70;;;;;;2585235;54;20033;31
2022/06/22 09:13:36;;;;;;;2.30;0.50;;;29.80;70.00;;;;;;2585360;54;20967;31
2022/06/22 09:16:59;;;;;;;2.00;0.67;;;30.00;68.80;;;;;;2603418;46;22561;31
2022/06/22 09:20:26;;;;;;;2.17;0.65;;;30.20;67.50;;;;;;2585242;54;22548;31
2022/06/22 09:23:30;;;;;;;3.60;0.80;;;30.30;68.10;;;;;;2586314;46;20945;31
2022/06/22 09:26:05;;;;;;;2.53;0.80;;;30.30;68.10;;;;;;2585105;54;20057;31
2022/06/22 09:31:37;;;;;;;2.40;0.70;;;30.60;68.10;;;;;;2582116;54;21024;31
2022/06/22 09:34:20;;;;;;;3.50;1.10;;;30.50;66.30;;;;;;2582542;54;20050;31
2022/06/22 09:37:10;;;;;;;1.80;0.70;;;30.50;66.90;;;;;;2582826;54;21247;31
2022/06/22 09:40:07;;;;;;;1.60;0.80;;;30.50;67.40;;;;;;2583092;54;20073;31
2022/06/22 09:43:11;;;;;;;5.20;0.75;;;30.40;66.30;;;;;;2600889;46;20997;31
2022/06/22 09:45:59;;;;;;;2.90;0.90;;;30.40;66.40;;;;;;2584952;54;20116;31
2022/06/22 09:49:01;;;;;;;2.65;0.70;;;30.50;66.00;;;;;;2683201;39;22310;31
2022/06/22 09:51:43;;;;;;;2.83;0.80;;;30.50;66.40;;;;;;2585162;54;20607;31
2022/06/22 09:57:37;;;;;;;2.35;0.80;;;30.50;68.30;;;;;;2585289;54;20055;31
2022/06/22 10:00:12;;;;;;;1.27;0.60;;;30.60;66.70;;;;;;2585004;54;20878;31
2022/06/22 10:03:01;;;;;;;2.60;1.00;;;30.60;67.10;;;;;;2585147;54;20107;31
2022/06/22 10:05:59;;;;;;;2.13;0.88;;;30.50;65.80;;;;;;2585122;54;20899;31
2022/06/22 10:08:55;;;;;;;4.20;0.90;;;30.50;66.00;;;;;;2585102;54;20605;31
2022/06/22 10:11:34;;;;;;;3.20;0.60;;;30.50;65.40;;;;;;2603677;46;20719;31
2022/06/22 10:14:33;;;;;;;1.67;0.60;;;30.20;65.40;;;;;;2584973;54;20026;31
2022/06/22 10:17:16;;;;;;;2.75;0.70;;;30.10;65.50;;;;;;2753465;31;20649;31
2022/06/22 10:20:15;;;;;;;2.73;0.60;;;30.00;66.10;;;;;;2584879;54;20753;31
2022/06/22 10:22:57;;;;;;;2.75;0.82;;;30.00;65.80;;;;;;2584779;54;20882;31
2022/06/22 10:25:43;;;;;;;4.05;0.52;;;29.90;65.70;;;;;;2584840;54;20949;31
2022/06/22 10:28:29;;;;;;;3.40;1.00;;;29.80;66.30;;;;;;2584692;54;20049;31
2022/06/22 10:31:08;;;;;;;2.40;0.60;;;29.70;67.10;;;;;;2603288;46;20023;31
2022/06/22 10:34:11;;;;;;;1.90;0.50;;;29.50;67.70;;;;;;2585087;54;20122;31
2022/06/22 10:36:43;;;;;;;2.60;0.63;;;29.60;65.50;;;;;;2585708;47;20914;31
2022/06/22 10:39:44;;;;;;;2.53;0.70;;;29.60;66.20;;;;;;2602923;47;20817;31
2022/06/22 10:45:43;;;;;;;2.40;0.70;;;29.60;66.20;;;;;;2584566;54;20856;31
2022/06/22 10:48:36;;;;;;;2.72;0.77;;;29.60;65.60;;;;;;2603470;47;20034;31
2022/06/22 10:51:14;;;;;;;5.72;1.00;;;29.50;65.40;;;;;;2584773;54;20906;31
2022/06/22 10:54:22;;;;;;;2.17;0.73;;;29.50;66.00;;;;;;2584801;54;20926;31
2022/06/22 10:57:27;;;;;;;2.05;0.65;;;29.40;66.80;;;;;;2584615;54;20109;31
2022/06/22 11:00:17;;;;;;;2.55;0.80;;;29.50;66.20;;;;;;2584887;54;20901;31
2022/06/22 11:03:24;;;;;;;4.82;1.13;;;29.60;67.40;;;;;;2603149;47;20903;31
2022/06/22 11:06:17;;;;;;;5.05;0.70;;;29.70;66.80;;;;;;2584466;54;20112;31
2022/06/22 11:09:03;;;;;;;4.87;0.60;;;29.60;66.00;;;;;;2585027;54;21884;31
2022/06/22 11:11:48;;;;;;;3.65;0.80;;;29.60;66.50;;;;;;2584345;54;20026;31
2022/06/22 11:14:50;;;;;;;3.83;0.50;;;29.60;66.70;;;;;;2603082;47;20925;31
2022/06/22 11:17:32;;;;;;;1.80;0.40;;;29.50;66.50;;;;;;2700688;39;21719;31
2022/06/22 11:20:35;;;;;;;2.25;0.80;;;29.60;66.10;;;;;;2682957;39;22572;31
2022/06/22 11:23:11;;;;;;;2.40;0.60;;;29.50;66.00;;;;;;2584472;54;20920;31
2022/06/22 11:31:48;;;;;;;5.65;1.20;;;29.20;66.10;;;;;;2604339;46;20820;31
2022/06/22 11:34:52;;;;;;;3.08;0.82;;;29.00;67.60;;;;;;2585400;54;20064;31
2022/06/22 11:37:37;;;;;;;4.35;0.85;;;28.80;66.40;;;;;;2585109;54;20929;31
2022/06/22 11:40:31;;;;;;;2.70;0.75;;;28.70;68.50;;;;;;2585692;54;20061;31
2022/06/22 11:43:15;;;;;;;4.40;0.65;;;28.70;67.50;;;;;;2604143;46;20038;31
2022/06/22 11:46:00;;;;;;;2.47;0.70;;;28.90;66.40;;;;;;2585618;54;20085;31
2022/06/22 11:48:33;;;;;;;2.77;0.63;;;28.80;65.00;;;;;;2585392;54;20093;31
2022/06/22 11:51:14;;;;;;;3.45;0.70;;;28.80;66.70;;;;;;2585706;54;21904;31
2022/06/22 11:54:35;;;;;;;2.73;0.77;;;28.70;66.30;;;;;;2603813;46;20026;31
2022/06/22 12:00:05;;;;;;;3.17;0.50;;;29.00;68.40;;;;;;2585429;54;20026;31
2022/06/22 12:03:05;;;;;;;4.50;0.70;;;29.10;66.40;;;;;;2585497;54;20049;31
2022/06/22 12:06:05;;;;;;;4.05;0.73;;;29.10;66.80;;;;;;2585233;54;20022;31
2022/06/22 12:08:47;;;;;;;1.98;0.50;;;29.10;67.40;;;;;;2603406;46;20049;31
2022/06/22 12:11:24;;;;;;;1.55;0.55;;;29.30;70.10;;;;;;2683688;39;22392;31
2022/06/22 12:17:24;;;;;;;2.40;0.40;;;29.20;67.60;;;;;;2585690;54;20085;31
2022/06/22 12:20:05;;;;;;;2.97;0.60;;;29.00;66.50;;;;;;2603998;46;20049;31
2022/06/22 12:22:43;;;;;;;3.55;0.50;;;28.80;67.20;;;;;;2603459;46;20962;31
2022/06/22 12:25:32;;;;;;;3.23;0.80;;;28.70;67.70;;;;;;2585140;54;20116;31
2022/06/22 12:28:13;;;;;;;5.70;0.70;;;28.60;66.50;;;;;;2585405;54;20906;31
2022/06/22 12:30:50;;;;;;;3.00;0.50;;;28.50;68.60;;;;;;2683275;39;21198;31
2022/06/22 12:33:28;;;;;;;1.30;0.40;;;28.50;67.80;;;;;;2585491;54;21941;31
2022/06/22 12:36:07;;;;;;;1.45;0.50;;;28.50;68.40;;;;;;2584972;54;20942;31
2022/06/22 12:38:41;;;;;;;3.80;0.43;;;28.50;68.20;;;;;;2585637;54;20124;31
2022/06/22 12:41:40;;;;;;;2.90;0.60;;;28.40;67.50;;;;;;2603797;46;20901;31
2022/06/22 12:44:47;;;;;;;3.08;0.57;;;28.40;67.30;;;;;;2585344;54;20027;31
2022/06/22 12:47:59;;;;;;;3.42;0.75;;;28.30;68.10;;;;;;2585250;54;20997;31
2022/06/22 12:51:04;;;;;;;1.35;0.50;;;28.30;68.90;;;;;;2585181;54;20952;31
2022/06/22 12:53:43;;;;;;;1.70;0.30;;;28.40;67.50;;;;;;2584923;54;20030;31
2022/06/22 12:56:22;;;;;;;4.28;0.80;;;28.30;68.80;;;;;;2585500;54;20964;31
2022/06/22 12:58:57;;;;;;;1.10;0.30;;;28.30;67.30;;;;;;2585315;54;21946;31
2022/06/22 13:01:30;;;;;;;4.57;0.50;;;28.10;68.20;;;;;;2585333;54;20031;31
2022/06/22 13:04:09;;;;;;;3.20;0.70;;;27.90;67.50;;;;;;2584999;54;20084;31
2022/06/22 13:06:52;;;;;;;1.40;0.50;;;27.60;67.70;;;;;;2585260;54;21116;31
2022/06/22 13:09:30;;;;;;;2.53;0.43;;;27.60;69.20;;;;;;2585168;54;20950;31
2022/06/22 13:12:05;;;;;;;1.92;0.52;;;27.60;68.70;;;;;;2585259;54;21942;31
2022/06/22 13:14:42;;;;;;;3.53;0.60;;;27.60;68.70;;;;;;2585123;54;20921;31
2022/06/22 13:17:21;;;;;;;1.60;0.63;;;27.60;67.80;;;;;;2700616;39;21764;31
2022/06/22 13:20:12;;;;;;;2.15;0.65;;;27.60;68.80;;;;;;2700913;39;20567;31
2022/06/22 13:22:51;;;;;;;2.80;0.70;;;27.60;68.60;;;;;;2585219;54;20049;31
2022/06/22 13:25:36;;;;;;;3.88;0.60;;;27.50;68.90;;;;;;2584783;54;20093;31
2022/06/22 13:28:17;;;;;;;2.50;0.50;;;27.60;68.20;;;;;;2603183;46;20081;31
2022/06/22 13:30:52;;;;;;;6.23;0.80;;;27.60;67.50;;;;;;2585149;54;20139;31
2022/06/22 13:33:31;;;;;;;2.17;0.60;;;27.60;68.00;;;;;;2603517;46;21016;31
2022/06/22 13:36:15;;;;;;;2.55;0.40;;;27.60;68.10;;;;;;2603225;46;20038;31
2022/06/22 13:39:02;;;;;;;1.75;0.60;;;27.60;67.00;;;;;;2585062;54;20026;31
2022/06/22 13:42:08;;;;;;;1.50;0.53;;;27.60;67.10;;;;;;2584739;54;20037;31
2022/06/22 13:44:55;;;;;;;1.03;0.70;;;27.60;66.70;;;;;;2587498;46;20934;31
2022/06/22 13:47:50;;;;;;;3.65;0.52;;;27.60;67.40;;;;;;2584778;54;21024;31
2022/06/22 13:50:51;;;;;;;2.30;0.53;;;27.50;67.50;;;;;;2584961;54;20022;31
2022/06/22 13:53:32;;;;;;;4.00;0.73;;;27.50;68.50;;;;;;2584926;54;20093;31
2022/06/22 13:56:07;;;;;;;2.53;0.60;;;27.40;67.30;;;;;;2603556;46;20030;31
2022/06/22 13:58:41;;;;;;;2.80;0.50;;;27.40;67.50;;;;;;2585209;54;20030;31
2022/06/22 14:01:22;;;;;;;2.90;0.60;;;27.40;68.10;;;;;;2584935;54;20034;31
2022/06/22 14:03:58;;;;;;;3.22;0.98;;;27.40;67.70;;;;;;2584885;54;20026;31
2022/06/22 14:06:33;;;;;;;1.50;0.50;;;27.40;67.40;;;;;;2584910;54;20034;31
2022/06/22 14:09:11;;;;;;;2.33;0.45;;;27.30;67.80;;;;;;2584933;54;20764;31
2022/06/22 14:11:49;;;;;;;1.05;0.47;;;27.30;67.50;;;;;;2583876;54;20023;31
2022/06/22 14:14:26;;;;;;;1.35;0.60;;;27.40;67.20;;;;;;2585069;54;20078;31
2022/06/22 14:17:04;;;;;;;;;;;27.30;67.20;;;;;;2585174;54;21000;31
2022/06/22 14:19:48;;;;;;;2.10;0.40;;;27.20;68.50;;;;;;2603383;46;20813;31
2022/06/22 14:22:23;;;;;;;3.85;0.73;;;27.30;68.50;;;;;;2584903;54;20048;31
2022/06/22 14:24:56;;;;;;;4.00;0.52;;;27.30;69.80;;;;;;2584758;54;20931;31
2022/06/22 14:27:42;;;;;;;3.65;0.40;;;27.30;68.70;;;;;;2584935;54;21013;31
2022/06/22 14:30:22;;;;;;;0.90;0.30;;;27.40;68.80;;;;;;2585025;54;20962;31
2022/06/22 14:33:25;;;;;;;1.17;0.43;;;27.50;69.40;;;;;;2603215;46;20028;31
2022/06/22 14:36:08;;;;;;;2.55;0.80;;;27.50;68.00;;;;;;2585062;54;20065;31
2022/06/22 14:38:47;;;;;;;5.40;0.83;;;27.50;68.70;;;;;;2584846;54;20080;31
2022/06/22 14:41:26;;;;;;;2.42;0.70;;;27.40;67.50;;;;;;2585152;54;20045;31
2022/06/22 14:44:05;;;;;;;2.33;0.80;;;27.30;67.60;;;;;;2584614;54;20052;31
2022/06/22 14:46:41;;;;;;;1.35;0.55;;;27.30;68.00;;;;;;2584717;54;20032;31
2022/06/22 14:49:41;;;;;;;4.20;1.50;;;27.30;68.40;;;;;;2584961;54;20022;31
2022/06/22 14:52:16;;;;;;;2.47;0.40;;;27.30;67.70;;;;;;2585086;54;20030;31
2022/06/22 14:54:53;;;;;;;2.93;0.70;;;27.20;68.10;;;;;;2682591;39;20525;31
2022/06/22 14:57:31;;;;;;;2.63;0.60;;;27.20;68.80;;;;;;2603335;47;20912;31
2022/06/22 15:00:19;;;;;;;4.97;0.70;;;27.20;68.70;;;;;;2585468;54;22500;31
2022/06/22 15:02:51;;;;;;;3.35;0.70;;;27.10;69.00;;;;;;2585366;54;20031;31